createdAt,value
2023-03-31T00:00:06.441Z,537.00
2023-03-31T00:00:36.554Z,536.00
2023-03-31T00:01:06.684Z,537.00
2023-03-31T00:01:36.668Z,539.00
2023-03-31T00:02:06.779Z,541.00
2023-03-31T00:02:36.985Z,540.00
2023-03-31T00:03:07.076Z,539.00
2023-03-31T00:03:37.228Z,539.00
2023-03-31T00:04:07.416Z,538.00
2023-03-31T00:04:37.220Z,538.00
2023-03-31T00:05:07.245Z,539.00
2023-03-31T00:05:37.229Z,541.00
2023-03-31T00:06:07.516Z,539.00
2023-03-31T00:06:37.365Z,538.00
2023-03-31T00:07:07.471Z,537.00
2023-03-31T00:07:37.597Z,537.00
2023-03-31T00:08:07.702Z,539.00
2023-03-31T00:08:37.807Z,539.00
2023-03-31T00:09:09.586Z,540.00
2023-03-31T00:09:38.009Z,540.00
2023-03-31T00:10:17.895Z,539.00
2023-03-31T00:10:38.102Z,538.00
2023-03-31T00:11:08.209Z,538.00
2023-03-31T00:11:38.329Z,539.00
2023-03-31T00:12:08.442Z,540.00
2023-03-31T00:12:38.555Z,540.00
2023-03-31T00:13:08.655Z,540.00
2023-03-31T00:13:38.771Z,538.00
2023-03-31T00:14:08.837Z,538.00
2023-03-31T00:14:38.910Z,538.00
2023-03-31T00:15:08.989Z,537.00
2023-03-31T00:15:39.052Z,537.00
2023-03-31T00:16:09.382Z,538.00
2023-03-31T00:16:39.341Z,540.00
2023-03-31T00:17:09.216Z,540.00
2023-03-31T00:17:39.308Z,540.00
2023-03-31T00:18:09.394Z,541.00
2023-03-31T00:18:39.468Z,540.00
2023-03-31T00:19:09.538Z,541.00
2023-03-31T00:19:39.616Z,543.00
2023-03-31T00:20:09.693Z,542.00
2023-03-31T00:20:39.763Z,542.00
2023-03-31T00:21:09.838Z,539.00
2023-03-31T00:21:39.920Z,535.00
2023-03-31T00:22:09.992Z,534.00
2023-03-31T00:22:40.070Z,535.00
2023-03-31T00:23:10.161Z,533.00
2023-03-31T00:23:40.260Z,535.00
2023-03-31T00:24:10.365Z,535.00
2023-03-31T00:24:40.501Z,535.00
2023-03-31T00:25:10.599Z,534.00
2023-03-31T00:25:40.706Z,535.00
2023-03-31T00:26:10.818Z,536.00
2023-03-31T00:26:40.934Z,537.00
2023-03-31T00:27:11.041Z,538.00
2023-03-31T00:27:41.157Z,537.00
2023-03-31T00:28:11.269Z,537.00
2023-03-31T00:28:41.381Z,538.00
2023-03-31T00:29:11.495Z,536.00
2023-03-31T00:29:41.663Z,535.00
2023-03-31T00:30:11.666Z,535.00
2023-03-31T00:30:41.663Z,533.00
2023-03-31T00:31:11.766Z,530.00
2023-03-31T00:31:41.941Z,530.00
2023-03-31T00:32:11.949Z,531.00
2023-03-31T00:32:42.072Z,532.00
2023-03-31T00:33:12.095Z,532.00
2023-03-31T00:33:42.203Z,531.00
2023-03-31T00:34:12.328Z,533.00
2023-03-31T00:34:42.436Z,535.00
2023-03-31T00:35:12.546Z,534.00
2023-03-31T00:35:42.724Z,534.00
2023-03-31T00:36:12.762Z,531.00
2023-03-31T00:36:42.756Z,529.00
2023-03-31T00:37:12.868Z,529.00
2023-03-31T00:37:42.864Z,527.00
2023-03-31T00:38:12.973Z,527.00
2023-03-31T00:38:43.084Z,527.00
2023-03-31T00:39:13.194Z,527.00
2023-03-31T00:39:43.389Z,527.00
2023-03-31T00:40:13.406Z,528.00
2023-03-31T00:40:43.479Z,529.00
2023-03-31T00:41:13.594Z,528.00
2023-03-31T00:41:43.746Z,525.00
2023-03-31T00:42:13.732Z,525.00
2023-03-31T00:42:43.868Z,526.00
2023-03-31T00:43:13.834Z,528.00
2023-03-31T00:43:43.956Z,528.00
2023-03-31T00:44:14.114Z,526.00
2023-03-31T00:44:44.094Z,526.00
2023-03-31T00:45:14.214Z,527.00
2023-03-31T00:45:44.333Z,527.00
2023-03-31T00:46:14.362Z,529.00
2023-03-31T00:46:44.352Z,531.00
2023-03-31T00:47:14.335Z,533.00
2023-03-31T00:47:44.472Z,533.00
2023-03-31T00:48:14.596Z,535.00
2023-03-31T00:48:44.684Z,535.00
2023-03-31T00:49:14.795Z,536.00
2023-03-31T00:49:44.906Z,535.00
2023-03-31T00:50:15.020Z,536.00
2023-03-31T00:50:45.139Z,538.00
2023-03-31T00:51:15.255Z,538.00
2023-03-31T00:51:45.255Z,533.00
2023-03-31T00:52:45.316Z,531.00
2023-03-31T00:53:15.426Z,532.00
2023-03-31T00:53:45.537Z,535.00
2023-03-31T00:54:15.649Z,537.00
2023-03-31T00:54:45.764Z,539.00
2023-03-31T00:55:15.897Z,538.00
2023-03-31T00:55:45.981Z,539.00
2023-03-31T00:56:16.089Z,540.00
2023-03-31T00:56:46.236Z,541.00
2023-03-31T00:57:16.259Z,538.00
2023-03-31T00:57:46.279Z,539.00
2023-03-31T00:58:16.396Z,537.00
2023-03-31T00:58:46.509Z,536.00
2023-03-31T00:59:16.618Z,537.00
2023-03-31T00:59:46.746Z,537.00
2023-03-31T01:00:16.927Z,536.00
2023-03-31T01:00:46.922Z,536.00
2023-03-31T01:01:17.097Z,533.00
2023-03-31T01:01:47.212Z,531.00
2023-03-31T01:02:17.184Z,530.00
2023-03-31T01:02:47.328Z,529.00
2023-03-31T01:03:17.388Z,530.00
2023-03-31T01:03:47.421Z,530.00
2023-03-31T01:04:17.396Z,529.00
2023-03-31T01:04:47.511Z,532.00
2023-03-31T01:05:17.625Z,530.00
2023-03-31T01:05:47.626Z,534.00
2023-03-31T01:06:17.748Z,534.00
2023-03-31T01:06:47.740Z,533.00
2023-03-31T01:07:47.822Z,532.00
2023-03-31T01:08:17.960Z,532.00
2023-03-31T01:08:47.950Z,532.00
2023-03-31T01:09:17.928Z,533.00
2023-03-31T01:09:48.042Z,533.00
2023-03-31T01:10:18.153Z,533.00
2023-03-31T01:10:48.283Z,533.00
2023-03-31T01:11:18.379Z,533.00
2023-03-31T01:11:48.521Z,533.00
2023-03-31T01:12:18.524Z,532.00
2023-03-31T01:12:48.636Z,532.00
2023-03-31T01:13:18.733Z,532.00
2023-03-31T01:13:48.823Z,530.00
2023-03-31T01:14:18.893Z,530.00
2023-03-31T01:14:48.969Z,529.00
2023-03-31T01:15:19.050Z,530.00
2023-03-31T01:15:49.122Z,530.00
2023-03-31T01:16:19.253Z,529.00
2023-03-31T01:16:49.263Z,530.00
2023-03-31T01:17:19.609Z,529.00
2023-03-31T01:17:49.555Z,528.00
2023-03-31T01:18:19.451Z,527.00
2023-03-31T01:18:49.520Z,529.00
2023-03-31T01:19:19.475Z,522.00
2023-03-31T01:19:49.557Z,524.00
2023-03-31T01:20:19.618Z,525.00
2023-03-31T01:20:49.699Z,525.00
2023-03-31T01:21:19.780Z,525.00
2023-03-31T01:21:49.853Z,526.00
2023-03-31T01:22:19.924Z,526.00
2023-03-31T01:22:50.016Z,525.00
2023-03-31T01:23:20.077Z,526.00
2023-03-31T01:23:50.185Z,524.00
2023-03-31T01:24:20.295Z,525.00
2023-03-31T01:24:50.405Z,525.00
2023-03-31T01:25:20.526Z,528.00
2023-03-31T01:25:50.655Z,527.00
2023-03-31T01:26:20.784Z,527.00
2023-03-31T01:26:50.793Z,526.00
2023-03-31T01:27:20.774Z,527.00
2023-03-31T01:27:50.930Z,527.00
2023-03-31T01:28:20.991Z,529.00
2023-03-31T01:28:51.122Z,529.00
2023-03-31T01:29:21.097Z,528.00
2023-03-31T01:29:51.207Z,526.00
2023-03-31T01:30:21.332Z,525.00
2023-03-31T01:30:51.470Z,525.00
2023-03-31T01:31:21.508Z,523.00
2023-03-31T01:31:51.545Z,523.00
2023-03-31T01:32:21.518Z,523.00
2023-03-31T01:32:51.676Z,522.00
2023-03-31T01:33:21.700Z,523.00
2023-03-31T01:33:51.798Z,522.00
2023-03-31T01:34:21.911Z,522.00
2023-03-31T01:34:52.025Z,523.00
2023-03-31T01:35:22.184Z,522.00
2023-03-31T01:35:52.219Z,522.00
2023-03-31T01:36:22.215Z,522.00
2023-03-31T01:36:52.352Z,522.00
2023-03-31T01:37:22.332Z,521.00
2023-03-31T01:37:52.449Z,521.00
2023-03-31T01:38:22.547Z,521.00
2023-03-31T01:38:52.668Z,523.00
2023-03-31T01:39:22.769Z,523.00
2023-03-31T01:39:52.894Z,523.00
2023-03-31T01:40:23.009Z,525.00
2023-03-31T01:40:53.149Z,525.00
2023-03-31T01:41:23.248Z,524.00
2023-03-31T01:41:53.406Z,525.00
2023-03-31T01:42:23.411Z,524.00
2023-03-31T01:42:53.518Z,523.00
2023-03-31T01:43:23.631Z,523.00
2023-03-31T01:43:53.620Z,523.00
2023-03-31T01:44:23.739Z,525.00
2023-03-31T01:44:53.842Z,526.00
2023-03-31T01:45:23.964Z,523.00
2023-03-31T01:45:54.103Z,524.00
2023-03-31T01:46:24.146Z,522.00
2023-03-31T01:46:54.203Z,523.00
2023-03-31T01:47:24.219Z,522.00
2023-03-31T01:47:54.369Z,519.00
2023-03-31T01:48:24.388Z,519.00
2023-03-31T01:48:54.507Z,521.00
2023-03-31T01:49:24.627Z,521.00
2023-03-31T01:49:54.614Z,523.00
2023-03-31T01:50:24.728Z,522.00
2023-03-31T01:50:54.842Z,523.00
2023-03-31T01:51:24.956Z,523.00
2023-03-31T01:51:54.981Z,523.00
2023-03-31T01:52:55.019Z,523.00
2023-03-31T01:53:25.137Z,521.00
2023-03-31T01:53:55.126Z,520.00
2023-03-31T01:54:25.238Z,517.00
2023-03-31T01:54:55.344Z,517.00
2023-03-31T01:55:25.345Z,515.00
2023-03-31T01:55:55.477Z,516.00
2023-03-31T01:56:25.564Z,517.00
2023-03-31T01:56:55.729Z,515.00
2023-03-31T01:57:25.802Z,517.00
2023-03-31T01:57:55.794Z,517.00
2023-03-31T01:58:25.911Z,514.00
2023-03-31T01:58:56.020Z,512.00
2023-03-31T01:59:26.134Z,513.00
2023-03-31T01:59:56.250Z,514.00
2023-03-31T02:00:26.357Z,515.00
2023-03-31T02:00:56.469Z,515.00
2023-03-31T02:01:26.620Z,517.00
2023-03-31T02:01:56.732Z,518.00
2023-03-31T02:02:26.850Z,519.00
2023-03-31T02:02:56.829Z,520.00
2023-03-31T02:03:26.905Z,523.00
2023-03-31T02:03:57.060Z,525.00
2023-03-31T02:04:27.051Z,523.00
2023-03-31T02:04:57.176Z,521.00
2023-03-31T02:05:27.272Z,520.00
2023-03-31T02:05:57.383Z,521.00
2023-03-31T02:06:27.495Z,520.00
2023-03-31T02:06:57.615Z,520.00
2023-03-31T02:07:27.604Z,518.00
2023-03-31T02:07:57.717Z,517.00
2023-03-31T02:08:27.850Z,517.00
2023-03-31T02:08:57.948Z,517.00
2023-03-31T02:09:28.060Z,517.00
2023-03-31T02:09:58.178Z,516.00
2023-03-31T02:10:28.285Z,516.00
2023-03-31T02:10:58.421Z,516.00
2023-03-31T02:11:28.404Z,517.00
2023-03-31T02:11:58.536Z,518.00
2023-03-31T02:12:28.526Z,519.00
2023-03-31T02:12:58.632Z,521.00
2023-03-31T02:13:28.746Z,520.00
2023-03-31T02:13:58.821Z,522.00
2023-03-31T02:14:28.888Z,523.00
2023-03-31T02:14:58.968Z,523.00
2023-03-31T02:15:29.033Z,522.00
2023-03-31T02:15:59.154Z,524.00
2023-03-31T02:16:29.270Z,525.00
2023-03-31T02:16:59.205Z,526.00
2023-03-31T02:17:29.226Z,527.00
2023-03-31T02:17:59.356Z,529.00
2023-03-31T02:18:29.344Z,528.00
2023-03-31T02:18:59.421Z,528.00
2023-03-31T02:19:29.485Z,529.00
2023-03-31T02:19:59.559Z,530.00
2023-03-31T02:20:29.630Z,530.00
2023-03-31T02:20:59.702Z,530.00
2023-03-31T02:21:29.778Z,530.00
2023-03-31T02:21:59.861Z,530.00
2023-03-31T02:22:29.936Z,531.00
2023-03-31T02:23:00.013Z,528.00
2023-03-31T02:23:30.087Z,529.00
2023-03-31T02:24:00.201Z,529.00
2023-03-31T02:24:30.311Z,528.00
2023-03-31T02:25:00.432Z,527.00
2023-03-31T02:25:30.544Z,528.00
2023-03-31T02:26:00.674Z,528.00
2023-03-31T02:26:30.759Z,526.00
2023-03-31T02:27:00.913Z,526.00
2023-03-31T02:27:30.897Z,522.00
2023-03-31T02:28:01.018Z,522.00
2023-03-31T02:28:31.129Z,522.00
2023-03-31T02:29:01.285Z,522.00
2023-03-31T02:29:31.249Z,524.00
2023-03-31T02:30:01.355Z,525.00
2023-03-31T02:30:31.463Z,524.00
2023-03-31T02:31:01.576Z,525.00
2023-03-31T02:31:31.709Z,524.00
2023-03-31T02:32:01.743Z,523.00
2023-03-31T02:32:31.876Z,525.00
2023-03-31T02:33:01.899Z,524.00
2023-03-31T02:33:31.995Z,523.00
2023-03-31T02:34:02.096Z,525.00
2023-03-31T02:34:32.230Z,523.00
2023-03-31T02:35:02.336Z,523.00
2023-03-31T02:35:32.468Z,523.00
2023-03-31T02:36:02.467Z,523.00
2023-03-31T02:36:32.505Z,523.00
2023-03-31T02:37:02.629Z,523.00
2023-03-31T02:37:32.617Z,524.00
2023-03-31T02:38:02.727Z,525.00
2023-03-31T02:38:32.840Z,523.00
2023-03-31T02:39:02.950Z,522.00
2023-03-31T02:39:33.056Z,523.00
2023-03-31T02:40:03.168Z,521.00
2023-03-31T02:40:33.290Z,520.00
2023-03-31T02:41:03.287Z,519.00
2023-03-31T02:41:33.419Z,520.00
2023-03-31T02:42:03.540Z,521.00
2023-03-31T02:42:33.538Z,519.00
2023-03-31T02:43:03.640Z,518.00
2023-03-31T02:43:33.763Z,518.00
2023-03-31T02:44:03.868Z,519.00
2023-03-31T02:44:33.974Z,519.00
2023-03-31T02:45:04.085Z,521.00
2023-03-31T02:45:34.267Z,521.00
2023-03-31T02:46:04.477Z,522.00
2023-03-31T02:46:34.343Z,522.00
2023-03-31T02:47:04.470Z,520.00
2023-03-31T02:47:34.484Z,521.00
2023-03-31T02:48:04.452Z,522.00
2023-03-31T02:48:34.574Z,521.00
2023-03-31T02:49:04.670Z,523.00
2023-03-31T02:49:34.785Z,522.00
2023-03-31T02:50:04.789Z,521.00
2023-03-31T02:50:34.902Z,521.00
2023-03-31T02:51:05.009Z,522.00
2023-03-31T02:51:35.120Z,523.00
2023-03-31T02:52:05.334Z,523.00
2023-03-31T02:52:35.325Z,521.00
2023-03-31T02:53:05.438Z,521.00
2023-03-31T02:53:35.544Z,521.00
2023-03-31T02:54:05.668Z,520.00
2023-03-31T02:54:35.782Z,521.00
2023-03-31T02:55:05.889Z,523.00
2023-03-31T02:55:35.895Z,521.00
2023-03-31T02:56:06.257Z,520.00
2023-03-31T02:56:36.055Z,521.00
2023-03-31T02:57:06.090Z,521.00
2023-03-31T02:57:36.049Z,522.00
2023-03-31T02:58:06.164Z,522.00
2023-03-31T02:58:36.271Z,522.00
2023-03-31T02:59:06.380Z,522.00
2023-03-31T02:59:36.504Z,520.00
2023-03-31T03:00:06.620Z,520.00
2023-03-31T03:00:36.726Z,520.00
2023-03-31T03:01:06.888Z,522.00
2023-03-31T03:01:36.877Z,524.00
2023-03-31T03:02:06.944Z,527.00
2023-03-31T03:02:37.016Z,526.00
2023-03-31T03:03:07.060Z,525.00
2023-03-31T03:03:37.023Z,524.00
2023-03-31T03:04:07.001Z,524.00
2023-03-31T03:04:37.144Z,522.00
2023-03-31T03:05:07.111Z,519.00
2023-03-31T03:05:37.216Z,519.00
2023-03-31T03:06:07.539Z,520.00
2023-03-31T03:06:37.338Z,519.00
2023-03-31T03:07:07.474Z,519.00
2023-03-31T03:07:37.458Z,520.00
2023-03-31T03:08:07.573Z,521.00
2023-03-31T03:08:37.698Z,520.00
2023-03-31T03:09:07.804Z,520.00
2023-03-31T03:09:37.802Z,519.00
2023-03-31T03:10:07.936Z,519.00
2023-03-31T03:10:37.925Z,521.00
2023-03-31T03:11:08.030Z,522.00
2023-03-31T03:11:38.140Z,523.00
2023-03-31T03:12:08.296Z,524.00
2023-03-31T03:12:38.386Z,522.00
2023-03-31T03:13:08.370Z,521.00
2023-03-31T03:13:38.465Z,519.00
2023-03-31T03:14:08.545Z,521.00
2023-03-31T03:14:38.626Z,520.00
2023-03-31T03:15:08.696Z,520.00
2023-03-31T03:15:38.791Z,521.00
2023-03-31T03:16:08.866Z,521.00
2023-03-31T03:16:38.930Z,520.00
2023-03-31T03:17:09.001Z,521.00
2023-03-31T03:17:39.184Z,522.00
2023-03-31T03:18:09.197Z,524.00
2023-03-31T03:18:39.138Z,523.00
2023-03-31T03:19:09.218Z,524.00
2023-03-31T03:19:39.295Z,525.00
2023-03-31T03:20:09.392Z,523.00
2023-03-31T03:20:39.484Z,523.00
2023-03-31T03:21:09.549Z,523.00
2023-03-31T03:21:39.630Z,522.00
2023-03-31T03:22:09.746Z,524.00
2023-03-31T03:22:39.817Z,524.00
2023-03-31T03:23:09.892Z,523.00
2023-03-31T03:23:39.984Z,521.00
2023-03-31T03:24:10.107Z,522.00
2023-03-31T03:24:40.228Z,520.00
2023-03-31T03:25:10.210Z,521.00
2023-03-31T03:25:40.322Z,522.00
2023-03-31T03:26:10.435Z,523.00
2023-03-31T03:26:40.545Z,525.00
2023-03-31T03:27:10.659Z,524.00
2023-03-31T03:27:40.824Z,523.00
2023-03-31T03:28:10.807Z,521.00
2023-03-31T03:28:40.921Z,521.00
2023-03-31T03:29:11.033Z,520.00
2023-03-31T03:29:41.153Z,520.00
2023-03-31T03:30:11.261Z,520.00
2023-03-31T03:30:41.391Z,521.00
2023-03-31T03:31:11.544Z,521.00
2023-03-31T03:31:41.562Z,520.00
2023-03-31T03:32:11.557Z,519.00
2023-03-31T03:32:41.726Z,517.00
2023-03-31T03:33:11.760Z,517.00
2023-03-31T03:33:41.787Z,518.00
2023-03-31T03:34:11.923Z,521.00
2023-03-31T03:34:42.014Z,522.00
2023-03-31T03:35:12.134Z,522.00
2023-03-31T03:35:42.260Z,521.00
2023-03-31T03:36:12.380Z,521.00
2023-03-31T03:36:42.460Z,521.00
2023-03-31T03:37:12.584Z,520.00
2023-03-31T03:37:42.709Z,522.00
2023-03-31T03:38:12.704Z,520.00
2023-03-31T03:38:42.813Z,519.00
2023-03-31T03:39:12.927Z,518.00
2023-03-31T03:39:43.040Z,517.00
2023-03-31T03:40:13.164Z,518.00
2023-03-31T03:40:43.150Z,519.00
2023-03-31T03:41:13.256Z,519.00
2023-03-31T03:41:43.255Z,519.00
2023-03-31T03:42:13.364Z,520.00
2023-03-31T03:42:43.501Z,520.00
2023-03-31T03:43:13.587Z,521.00
2023-03-31T03:43:43.703Z,522.00
2023-03-31T03:44:13.815Z,522.00
2023-03-31T03:44:43.930Z,521.00
2023-03-31T03:45:14.059Z,520.00
2023-03-31T03:45:44.155Z,520.00
2023-03-31T03:46:14.286Z,520.00
2023-03-31T03:46:44.397Z,520.00
2023-03-31T03:47:14.414Z,518.00
2023-03-31T03:47:44.565Z,515.00
2023-03-31T03:48:14.612Z,517.00
2023-03-31T03:48:44.723Z,515.00
2023-03-31T03:49:14.731Z,515.00
2023-03-31T03:49:44.838Z,514.00
2023-03-31T03:50:16.379Z,512.00
2023-03-31T03:50:45.043Z,514.00
2023-03-31T03:51:15.157Z,517.00
2023-03-31T03:51:45.272Z,514.00
2023-03-31T03:52:15.384Z,512.00
2023-03-31T03:52:45.494Z,512.00
2023-03-31T03:53:15.619Z,513.00
2023-03-31T03:53:45.721Z,511.00
2023-03-31T03:54:15.837Z,510.00
2023-03-31T03:54:45.943Z,509.00
2023-03-31T03:55:16.056Z,509.00
2023-03-31T03:55:46.165Z,510.00
2023-03-31T03:56:16.284Z,510.00
2023-03-31T03:56:46.410Z,512.00
2023-03-31T03:57:16.433Z,514.00
2023-03-31T03:57:46.529Z,514.00
2023-03-31T03:58:16.502Z,518.00
2023-03-31T03:58:46.623Z,517.00
2023-03-31T03:59:16.749Z,518.00
2023-03-31T03:59:46.849Z,518.00
2023-03-31T04:00:16.879Z,519.00
2023-03-31T04:00:46.831Z,520.00
2023-03-31T04:01:16.948Z,522.00
2023-03-31T04:01:47.112Z,527.00
2023-03-31T04:02:17.148Z,528.00
2023-03-31T04:02:47.254Z,529.00
2023-03-31T04:03:17.256Z,535.00
2023-03-31T04:03:47.257Z,535.00
2023-03-31T04:04:17.359Z,535.00
2023-03-31T04:04:47.535Z,536.00
2023-03-31T04:05:17.631Z,535.00
2023-03-31T04:05:47.627Z,535.00
2023-03-31T04:06:17.759Z,534.00
2023-03-31T04:06:47.853Z,530.00
2023-03-31T04:07:17.971Z,527.00
2023-03-31T04:07:47.964Z,526.00
2023-03-31T04:08:18.083Z,527.00
2023-03-31T04:08:48.132Z,532.00
2023-03-31T04:09:18.244Z,533.00
2023-03-31T04:09:48.353Z,534.00
2023-03-31T04:10:18.474Z,532.00
2023-03-31T04:10:48.586Z,534.00
2023-03-31T04:11:19.268Z,534.00
2023-03-31T04:11:48.772Z,534.00
2023-03-31T04:12:18.877Z,535.00
2023-03-31T04:12:49.002Z,537.00
2023-03-31T04:13:19.117Z,536.00
2023-03-31T04:13:49.066Z,535.00
2023-03-31T04:14:19.139Z,534.00
2023-03-31T04:14:49.203Z,534.00
2023-03-31T04:15:19.278Z,537.00
2023-03-31T04:15:49.359Z,537.00
2023-03-31T04:16:19.447Z,538.00
2023-03-31T04:16:49.551Z,536.00
2023-03-31T04:17:19.631Z,535.00
2023-03-31T04:17:49.785Z,537.00
2023-03-31T04:18:19.738Z,537.00
2023-03-31T04:18:49.817Z,535.00
2023-03-31T04:19:19.884Z,538.00
2023-03-31T04:19:49.954Z,538.00
2023-03-31T04:20:20.035Z,538.00
2023-03-31T04:20:50.105Z,540.00
2023-03-31T04:21:20.182Z,540.00
2023-03-31T04:21:50.265Z,535.00
2023-03-31T04:22:20.340Z,546.00
2023-03-31T04:22:50.419Z,550.00
2023-03-31T04:23:20.496Z,548.00
2023-03-31T04:23:50.596Z,547.00
2023-03-31T04:24:21.619Z,547.00
2023-03-31T04:24:50.798Z,545.00
2023-03-31T04:25:20.928Z,544.00
2023-03-31T04:25:51.022Z,545.00
2023-03-31T04:26:21.144Z,546.00
2023-03-31T04:26:51.269Z,546.00
2023-03-31T04:27:51.284Z,542.00
2023-03-31T04:28:21.325Z,546.00
2023-03-31T04:28:51.417Z,550.00
2023-03-31T04:29:21.542Z,552.00
2023-03-31T04:29:51.652Z,552.00
2023-03-31T04:30:21.770Z,555.00
2023-03-31T04:30:51.873Z,557.00
2023-03-31T04:31:22.015Z,558.00
2023-03-31T04:31:52.166Z,559.00
2023-03-31T04:32:22.144Z,560.00
2023-03-31T04:32:52.309Z,560.00
2023-03-31T04:33:22.295Z,560.00
2023-03-31T04:33:52.408Z,561.00
2023-03-31T04:34:22.513Z,561.00
2023-03-31T04:34:52.624Z,560.00
2023-03-31T04:35:22.753Z,558.00
2023-03-31T04:35:53.001Z,562.00
2023-03-31T04:36:22.911Z,564.00
2023-03-31T04:36:52.942Z,564.00
2023-03-31T04:37:23.061Z,566.00
2023-03-31T04:37:53.173Z,566.00
2023-03-31T04:38:23.286Z,566.00
2023-03-31T04:38:53.393Z,565.00
2023-03-31T04:39:23.506Z,565.00
2023-03-31T04:39:53.494Z,565.00
2023-03-31T04:40:23.622Z,565.00
2023-03-31T04:40:53.719Z,564.00
2023-03-31T04:41:23.830Z,566.00
2023-03-31T04:41:53.950Z,568.00
2023-03-31T04:42:24.056Z,572.00
2023-03-31T04:42:54.182Z,571.00
2023-03-31T04:43:24.188Z,571.00
2023-03-31T04:43:54.271Z,569.00
2023-03-31T04:44:24.390Z,570.00
2023-03-31T04:44:54.519Z,570.00
2023-03-31T04:45:24.765Z,568.00
2023-03-31T04:45:54.731Z,569.00
2023-03-31T04:46:24.736Z,568.00
2023-03-31T04:46:54.795Z,569.00
2023-03-31T04:47:24.927Z,571.00
2023-03-31T04:47:54.914Z,574.00
2023-03-31T04:48:24.911Z,575.00
2023-03-31T04:48:55.020Z,575.00
2023-03-31T04:49:25.144Z,576.00
2023-03-31T04:49:55.253Z,577.00
2023-03-31T04:50:25.370Z,577.00
2023-03-31T04:50:55.486Z,577.00
2023-03-31T04:51:25.603Z,583.00
2023-03-31T04:51:55.728Z,586.00
2023-03-31T04:52:25.721Z,588.00
2023-03-31T04:52:55.831Z,589.00
2023-03-31T04:53:25.942Z,590.00
2023-03-31T04:53:56.048Z,592.00
2023-03-31T04:54:26.165Z,594.00
2023-03-31T04:54:56.278Z,597.00
2023-03-31T04:55:26.380Z,599.00
2023-03-31T04:55:56.498Z,599.00
2023-03-31T04:56:26.674Z,602.00
2023-03-31T04:56:56.689Z,607.00
2023-03-31T04:57:26.710Z,605.00
2023-03-31T04:57:56.738Z,605.00
2023-03-31T04:58:26.878Z,603.00
2023-03-31T04:58:56.967Z,604.00
2023-03-31T04:59:27.083Z,603.00
2023-03-31T04:59:57.185Z,604.00
2023-03-31T05:00:27.299Z,603.00
2023-03-31T05:00:57.495Z,604.00
2023-03-31T05:01:27.629Z,604.00
2023-03-31T05:01:57.540Z,603.00
2023-03-31T05:02:27.699Z,601.00
2023-03-31T05:02:57.820Z,602.00
2023-03-31T05:03:27.917Z,600.00
2023-03-31T05:03:57.842Z,602.00
2023-03-31T05:04:27.956Z,605.00
2023-03-31T05:04:58.068Z,606.00
2023-03-31T05:05:28.178Z,606.00
2023-03-31T05:05:58.285Z,606.00
2023-03-31T05:06:28.406Z,608.00
2023-03-31T05:06:58.399Z,611.00
2023-03-31T05:07:58.473Z,610.00
2023-03-31T05:08:28.617Z,610.00
2023-03-31T05:08:58.620Z,608.00
2023-03-31T05:09:28.730Z,605.00
2023-03-31T05:09:58.846Z,604.00
2023-03-31T05:10:28.953Z,604.00
2023-03-31T05:10:59.069Z,603.00
2023-03-31T05:11:29.217Z,601.00
2023-03-31T05:11:59.209Z,599.00
2023-03-31T05:12:59.287Z,595.00
2023-03-31T05:13:29.389Z,593.00
2023-03-31T05:13:59.578Z,593.00
2023-03-31T05:14:29.553Z,593.00
2023-03-31T05:14:59.643Z,593.00
2023-03-31T05:15:29.755Z,591.00
2023-03-31T05:15:59.799Z,587.00
2023-03-31T05:16:29.890Z,588.00
2023-03-31T05:17:00.013Z,585.00
2023-03-31T05:17:29.973Z,587.00
2023-03-31T05:18:00.084Z,585.00
2023-03-31T05:18:30.102Z,585.00
2023-03-31T05:19:00.183Z,586.00
2023-03-31T05:19:30.248Z,586.00
2023-03-31T05:20:00.334Z,585.00
2023-03-31T05:20:30.448Z,583.00
2023-03-31T05:21:00.504Z,580.00
2023-03-31T05:21:30.573Z,580.00
2023-03-31T05:22:00.661Z,578.00
2023-03-31T05:22:30.720Z,576.00
2023-03-31T05:23:00.796Z,578.00
2023-03-31T05:23:30.884Z,576.00
2023-03-31T05:24:01.146Z,577.00
2023-03-31T05:24:31.073Z,575.00
2023-03-31T05:25:01.190Z,574.00
2023-03-31T05:25:31.302Z,571.00
2023-03-31T05:26:01.418Z,569.00
2023-03-31T05:26:31.525Z,570.00
2023-03-31T05:27:01.641Z,569.00
2023-03-31T05:27:31.760Z,568.00
2023-03-31T05:28:01.883Z,565.00
2023-03-31T05:28:32.518Z,564.00
2023-03-31T05:29:01.993Z,567.00
2023-03-31T05:29:32.017Z,564.00
2023-03-31T05:30:02.008Z,561.00
2023-03-31T05:30:32.004Z,559.00
2023-03-31T05:31:02.119Z,558.00
2023-03-31T05:31:32.255Z,555.00
2023-03-31T05:32:02.286Z,558.00
2023-03-31T05:32:32.321Z,554.00
2023-03-31T05:33:02.488Z,555.00
2023-03-31T05:33:32.443Z,559.00
2023-03-31T05:34:02.446Z,559.00
2023-03-31T05:34:32.556Z,560.00
2023-03-31T05:35:02.536Z,561.00
2023-03-31T05:35:32.701Z,562.00
2023-03-31T05:36:02.704Z,562.00
2023-03-31T05:36:32.813Z,560.00
2023-03-31T05:37:02.928Z,561.00
2023-03-31T05:37:33.031Z,560.00
2023-03-31T05:38:03.165Z,560.00
2023-03-31T05:38:33.155Z,559.00
2023-03-31T05:39:03.267Z,559.00
2023-03-31T05:39:33.376Z,559.00
2023-03-31T05:40:03.486Z,557.00
2023-03-31T05:40:33.608Z,557.00
2023-03-31T05:41:03.717Z,554.00
2023-03-31T05:41:33.827Z,553.00
2023-03-31T05:42:03.937Z,553.00
2023-03-31T05:42:34.119Z,551.00
2023-03-31T05:43:04.127Z,549.00
2023-03-31T05:44:04.184Z,550.00
2023-03-31T05:44:34.174Z,551.00
2023-03-31T05:45:04.689Z,554.00
2023-03-31T05:45:34.280Z,555.00
2023-03-31T05:46:04.823Z,555.00
2023-03-31T05:46:34.544Z,554.00
2023-03-31T05:47:04.559Z,554.00
2023-03-31T05:47:34.714Z,554.00
2023-03-31T05:48:04.764Z,554.00
2023-03-31T05:48:34.734Z,553.00
2023-03-31T05:49:04.849Z,557.00
2023-03-31T05:49:34.841Z,555.00
2023-03-31T05:50:04.959Z,553.00
2023-03-31T05:50:35.060Z,553.00
2023-03-31T05:51:05.180Z,554.00
2023-03-31T05:51:35.293Z,554.00
2023-03-31T05:52:05.432Z,556.00
2023-03-31T05:52:35.448Z,564.00
2023-03-31T05:53:05.540Z,570.00
2023-03-31T05:53:35.556Z,570.00
2023-03-31T05:54:05.643Z,574.00
2023-03-31T05:54:35.760Z,574.00
2023-03-31T05:55:05.887Z,576.00
2023-03-31T05:55:35.873Z,577.00
2023-03-31T05:56:06.432Z,580.00
2023-03-31T05:56:36.004Z,583.00
2023-03-31T05:57:06.173Z,583.00
2023-03-31T05:57:36.150Z,583.00
2023-03-31T05:58:06.269Z,585.00
2023-03-31T05:58:36.436Z,582.00
2023-03-31T05:59:06.453Z,584.00
2023-03-31T05:59:36.484Z,583.00
2023-03-31T06:00:06.589Z,579.00
2023-03-31T06:00:36.475Z,579.00
2023-03-31T06:01:36.577Z,577.00
2023-03-31T06:02:06.650Z,576.00
2023-03-31T06:02:36.798Z,577.00
2023-03-31T06:03:06.838Z,578.00
2023-03-31T06:03:36.892Z,580.00
2023-03-31T06:04:06.790Z,580.00
2023-03-31T06:04:36.886Z,580.00
2023-03-31T06:05:06.817Z,583.00
2023-03-31T06:05:36.937Z,585.00
2023-03-31T06:06:07.043Z,586.00
2023-03-31T06:06:37.863Z,587.00
2023-03-31T06:07:07.254Z,589.00
2023-03-31T06:07:37.380Z,590.00
2023-03-31T06:08:07.521Z,594.00
2023-03-31T06:08:37.491Z,595.00
2023-03-31T06:09:07.615Z,598.00
2023-03-31T06:09:37.760Z,598.00
2023-03-31T06:10:07.744Z,596.00
2023-03-31T06:10:37.854Z,595.00
2023-03-31T06:11:08.289Z,595.00
2023-03-31T06:11:38.001Z,596.00
2023-03-31T06:12:08.116Z,594.00
2023-03-31T06:12:38.228Z,593.00
2023-03-31T06:13:08.364Z,594.00
2023-03-31T06:13:38.381Z,593.00
2023-03-31T06:14:08.529Z,590.00
2023-03-31T06:14:38.562Z,589.00
2023-03-31T06:15:08.704Z,590.00
2023-03-31T06:15:38.780Z,591.00
2023-03-31T06:16:08.794Z,590.00
2023-03-31T06:16:38.778Z,588.00
2023-03-31T06:17:08.922Z,588.00
2023-03-31T06:17:39.207Z,588.00
2023-03-31T06:18:08.909Z,586.00
2023-03-31T06:18:38.893Z,587.00
2023-03-31T06:19:09.108Z,587.00